Time;durP1;ratioP1;P1;durP2;ratioP2;P2;SDS_P1;SDS_P2;PMS_P1;PMS_P2;Temp;Humidity;BMP_temperature;BMP_pressure;BME280_temperature;BME280_humidity;BME280_pressure;Samples;Min_cycle;Max_cycle;Signal;HPM_P1;HPM_P2
2024/01/10 00:01:48;;;;;;;25.13;16.03;;;;;;;;;;6133483;23;20071;-85
2024/01/10 00:04:16;;;;;;;23.30;15.67;;;;;;;;;;6148054;23;20029;-85
2024/01/10 00:07:02;;;;;;;26.63;15.83;;;;;;;;;;6152626;23;20029;-85
2024/01/10 00:09:29;;;;;;;24.23;16.23;;;;;;;;;;6148530;23;20025;-84
2024/01/10 00:11:56;;;;;;;22.77;15.77;;;;;;;;;;6173548;23;20021;-85
2024/01/10 00:14:24;;;;;;;25.23;15.37;;;;;;;;;;6150414;23;20020;-85
2024/01/10 00:16:51;;;;;;;23.97;15.93;;;;;;;;;;6146537;23;20013;-84
2024/01/10 00:19:18;;;;;;;21.83;15.10;;;;;;;;;;6123671;23;20315;-85
2024/01/10 00:21:45;;;;;;;24.37;15.37;;;;;;;;;;6119691;23;20017;-85
2024/01/10 00:24:12;;;;;;;24.60;16.17;;;;;;;;;;6148657;23;20027;-85
2024/01/10 00:26:39;;;;;;;22.87;14.87;;;;;;;;;;6145239;23;20043;-85
2024/01/10 00:29:05;;;;;;;23.53;15.27;;;;;;;;;;6123428;23;20444;-85
2024/01/10 00:31:32;;;;;;;21.50;15.20;;;;;;;;;;6144133;23;20805;-85
2024/01/10 00:33:59;;;;;;;22.63;14.27;;;;;;;;;;6123263;23;20067;-85
2024/01/10 00:36:26;;;;;;;22.53;15.70;;;;;;;;;;6146222;23;20013;-85
2024/01/10 00:38:54;;;;;;;23.53;15.13;;;;;;;;;;6121807;23;20025;-85
2024/01/10 00:41:21;;;;;;;23.37;15.40;;;;;;;;;;6122817;23;20021;-85
2024/01/10 00:43:48;;;;;;;23.53;14.97;;;;;;;;;;6122001;23;20342;-85
2024/01/10 00:46:17;;;;;;;22.13;14.53;;;;;;;;;;6147845;23;20064;-85
2024/01/10 00:48:45;;;;;;;21.13;13.83;;;;;;;;;;6145741;23;20452;-84
2024/01/10 00:51:12;;;;;;;26.90;15.60;;;;;;;;;;6122241;23;20021;-85
2024/01/10 00:53:39;;;;;;;23.03;14.47;;;;;;;;;;6122227;23;20021;-85
2024/01/10 00:56:06;;;;;;;19.77;14.00;;;;;;;;;;6147258;23;20070;-85
2024/01/10 00:58:33;;;;;;;22.37;14.77;;;;;;;;;;6164866;23;20028;-85
2024/01/10 01:01:00;;;;;;;21.03;14.47;;;;;;;;;;6122682;23;20095;-85
2024/01/10 01:03:29;;;;;;;20.93;13.57;;;;;;;;;;6123356;23;20414;-85
2024/01/10 01:05:56;;;;;;;;;;;;;;;;;;6148585;23;20032;-85
2024/01/10 01:08:24;;;;;;;20.67;12.73;;;;;;;;;;6172643;23;19920;-85
2024/01/10 01:10:51;;;;;;;21.80;13.37;;;;;;;;;;6144101;23;20020;-84
2024/01/10 01:13:18;;;;;;;22.90;14.23;;;;;;;;;;6149158;23;20760;-85
2024/01/10 01:15:45;;;;;;;21.33;13.90;;;;;;;;;;6120973;23;20013;-85
2024/01/10 01:18:12;;;;;;;20.40;14.10;;;;;;;;;;6121916;23;20504;-85
2024/01/10 01:20:40;;;;;;;23.37;13.73;;;;;;;;;;6121269;23;20702;-86
2024/01/10 01:23:07;;;;;;;19.47;13.20;;;;;;;;;;6126301;23;20020;-85
2024/01/10 01:25:34;;;;;;;20.97;13.60;;;;;;;;;;6120187;23;20025;-86
2024/01/10 01:28:01;;;;;;;21.07;13.27;;;;;;;;;;6125272;23;20021;-86
2024/01/10 01:30:28;;;;;;;17.70;12.57;;;;;;;;;;6124030;23;20493;-86
2024/01/10 01:32:55;;;;;;;19.63;12.63;;;;;;;;;;6148260;23;20028;-85
2024/01/10 01:35:23;;;;;;;20.50;12.73;;;;;;;;;;6122315;23;20047;-85
2024/01/10 01:37:51;;;;;;;20.95;12.82;;;;;;;;;;6144831;23;20702;-86
2024/01/10 01:40:18;;;;;;;18.77;12.57;;;;;;;;;;6147435;23;20092;-85
2024/01/10 01:42:46;;;;;;;19.15;11.88;;;;;;;;;;6119895;23;20025;-85
2024/01/10 01:45:13;;;;;;;20.10;12.90;;;;;;;;;;6145071;23;20343;-85
2024/01/10 01:47:40;;;;;;;20.43;12.37;;;;;;;;;;6119237;23;20032;-86
2024/01/10 01:50:11;;;;;;;20.00;12.97;;;;;;;;;;6171536;23;20501;-85
2024/01/10 01:52:38;;;;;;;20.63;12.63;;;;;;;;;;6118629;23;20051;-85
2024/01/10 01:55:06;;;;;;;18.23;12.87;;;;;;;;;;6146077;23;20017;-86
2024/01/10 01:57:33;;;;;;;19.77;12.50;;;;;;;;;;6169246;23;20101;-86
2024/01/10 02:00:00;;;;;;;16.90;12.80;;;;;;;;;;6120997;23;20059;-86
2024/01/10 02:02:27;;;;;;;20.30;12.50;;;;;;;;;;6146770;23;20449;-86
2024/01/10 02:04:55;;;;;;;16.13;11.77;;;;;;;;;;6157644;23;20032;-86
2024/01/10 02:07:22;;;;;;;17.98;11.93;;;;;;;;;;6122115;23;20021;-85
2024/01/10 02:09:50;;;;;;;18.20;11.73;;;;;;;;;;6095937;23;20035;-86
2024/01/10 02:12:17;;;;;;;16.80;11.77;;;;;;;;;;6146638;23;20017;-85
2024/01/10 02:14:44;;;;;;;17.23;11.37;;;;;;;;;;6146016;23;20092;-85
2024/01/10 02:17:11;;;;;;;19.83;12.27;;;;;;;;;;6121839;23;20013;-85
2024/01/10 02:19:39;;;;;;;20.07;12.47;;;;;;;;;;6144777;23;20029;-86
2024/01/10 02:22:06;;;;;;;18.33;11.87;;;;;;;;;;6147470;23;20032;-86
2024/01/10 02:24:34;;;;;;;17.73;12.53;;;;;;;;;;6120296;23;20067;-86
2024/01/10 02:27:00;;;;;;;21.23;13.68;;;;;;;;;;6122542;23;20032;-86
2024/01/10 02:29:30;;;;;;;21.20;14.30;;;;;;;;;;6123356;23;20056;-86
2024/01/10 02:31:57;;;;;;;18.33;12.93;;;;;;;;;;6147519;23;20020;-86
2024/01/10 02:34:25;;;;;;;18.97;12.73;;;;;;;;;;6122038;23;20009;-85
2024/01/10 02:36:52;;;;;;;19.83;12.20;;;;;;;;;;6119459;23;20024;-86
2024/01/10 02:39:19;;;;;;;20.13;13.53;;;;;;;;;;6171294;23;20025;-86
2024/01/10 02:41:46;;;;;;;21.97;13.80;;;;;;;;;;6119517;23;20607;-85
2024/01/10 02:44:14;;;;;;;22.20;14.03;;;;;;;;;;6121959;23;20148;-85
2024/01/10 02:46:41;;;;;;;21.73;14.13;;;;;;;;;;6143937;23;20027;-86
2024/01/10 02:49:08;;;;;;;24.97;15.37;;;;;;;;;;6123303;23;20479;-85
2024/01/10 02:51:35;;;;;;;23.00;15.27;;;;;;;;;;6143618;23;20021;-86
2024/01/10 02:54:03;;;;;;;23.83;15.10;;;;;;;;;;6122843;23;20023;-86
2024/01/10 02:56:30;;;;;;;23.27;15.67;;;;;;;;;;6121581;23;20436;-86
2024/01/10 02:58:57;;;;;;;27.40;16.10;;;;;;;;;;6124828;23;20021;-85
2024/01/10 03:01:24;;;;;;;27.57;16.93;;;;;;;;;;6148379;23;20766;-86
2024/01/10 03:03:52;;;;;;;25.13;16.03;;;;;;;;;;6123294;23;20337;-85
2024/01/10 03:06:19;;;;;;;27.63;17.50;;;;;;;;;;6124057;23;20106;-86
2024/01/10 03:08:46;;;;;;;25.83;17.20;;;;;;;;;;6123047;23;20020;-85
2024/01/10 03:11:14;;;;;;;26.03;16.70;;;;;;;;;;6148467;23;20028;-86
2024/01/10 03:13:41;;;;;;;26.80;17.20;;;;;;;;;;6173537;23;20013;-87
2024/01/10 03:16:08;;;;;;;25.13;15.83;;;;;;;;;;6125770;23;20040;-86
2024/01/10 03:18:36;;;;;;;25.43;17.10;;;;;;;;;;6122581;23;20021;-86
2024/01/10 03:21:06;;;;;;;27.07;17.07;;;;;;;;;;6174168;23;20017;-86
2024/01/10 03:23:33;;;;;;;27.10;17.27;;;;;;;;;;6144926;23;20438;-86
2024/01/10 03:26:00;;;;;;;28.47;18.00;;;;;;;;;;6171251;23;20044;-86
2024/01/10 03:28:26;;;;;;;28.27;17.83;;;;;;;;;;6150460;23;20021;-86
2024/01/10 03:30:54;;;;;;;26.97;16.70;;;;;;;;;;6122411;23;20024;-85
2024/01/10 03:33:21;;;;;;;26.30;16.37;;;;;;;;;;6125237;23;20484;-85
2024/01/10 03:35:48;;;;;;;25.97;16.77;;;;;;;;;;6170230;23;20677;-85
2024/01/10 03:38:17;;;;;;;24.80;17.00;;;;;;;;;;6149120;23;20379;-85
2024/01/10 03:40:44;;;;;;;27.45;16.23;;;;;;;;;;6147496;23;20044;-86
2024/01/10 03:43:12;;;;;;;23.70;15.43;;;;;;;;;;6174177;23;20051;-85
2024/01/10 03:45:39;;;;;;;27.40;17.02;;;;;;;;;;6172862;23;20028;-86
2024/01/10 03:48:07;;;;;;;24.93;16.23;;;;;;;;;;6124127;23;20028;-85
2024/01/10 03:50:34;;;;;;;23.77;16.17;;;;;;;;;;6121179;23;20024;-86
2024/01/10 03:53:01;;;;;;;28.47;17.53;;;;;;;;;;6149166;23;20013;-86
2024/01/10 03:55:30;;;;;;;24.63;16.43;;;;;;;;;;6122656;23;20052;-86
2024/01/10 03:57:57;;;;;;;;;;;;;;;;;;6125272;23;20068;-86
2024/01/10 04:00:25;;;;;;;29.17;15.90;;;;;;;;;;6172801;23;19943;-85
2024/01/10 04:02:52;;;;;;;;;;;;;;;;;;6122485;23;20019;-84
2024/01/10 04:05:20;;;;;;;26.83;16.00;;;;;;;;;;6146646;23;19912;-85
2024/01/10 04:07:47;;;;;;;27.67;16.98;;;;;;;;;;6146027;23;20294;-86
2024/01/10 04:10:14;;;;;;;30.10;17.63;;;;;;;;;;6123511;23;20100;-86
2024/01/10 04:12:44;;;;;;;25.70;17.37;;;;;;;;;;6120119;23;20024;-86
2024/01/10 04:15:11;;;;;;;28.40;18.43;;;;;;;;;;6123168;23;20020;-85
2024/01/10 04:17:39;;;;;;;28.60;17.95;;;;;;;;;;6145348;23;20020;-86
2024/01/10 04:20:07;;;;;;;28.30;18.50;;;;;;;;;;6098953;23;20072;-86
2024/01/10 04:22:34;;;;;;;27.07;16.30;;;;;;;;;;6142975;23;20288;-86
2024/01/10 04:25:02;;;;;;;26.43;16.60;;;;;;;;;;6144803;23;20025;-86
2024/01/10 04:27:30;;;;;;;26.83;17.60;;;;;;;;;;6120996;23;20064;-86
2024/01/10 04:29:57;;;;;;;26.80;18.05;;;;;;;;;;6146634;23;20025;-86
2024/01/10 04:32:24;;;;;;;26.93;18.23;;;;;;;;;;6145826;23;20017;-86
2024/01/10 04:34:52;;;;;;;27.03;17.30;;;;;;;;;;6120247;23;20017;-86
2024/01/10 04:37:19;;;;;;;30.50;18.30;;;;;;;;;;6123537;23;20492;-85
2024/01/10 04:39:46;;;;;;;30.03;19.13;;;;;;;;;;6145855;23;20023;-85
2024/01/10 04:42:14;;;;;;;27.60;17.27;;;;;;;;;;6123976;23;20064;-85
2024/01/10 04:44:41;;;;;;;29.20;17.87;;;;;;;;;;6170786;23;20092;-86
2024/01/10 04:47:08;;;;;;;28.00;18.10;;;;;;;;;;6122741;23;20017;-86
2024/01/10 04:49:35;;;;;;;31.27;18.63;;;;;;;;;;6118277;23;20178;-86
2024/01/10 04:52:03;;;;;;;26.93;18.33;;;;;;;;;;6149060;23;20337;-86
2024/01/10 04:54:30;;;;;;;27.90;18.73;;;;;;;;;;6146220;23;20021;-86
2024/01/10 04:56:57;;;;;;;28.33;19.03;;;;;;;;;;6147249;23;20370;-85
2024/01/10 04:59:24;;;;;;;29.77;19.27;;;;;;;;;;6123923;23;20516;-86
2024/01/10 05:01:52;;;;;;;29.73;19.40;;;;;;;;;;6118604;23;20116;-86
2024/01/10 05:04:19;;;;;;;31.23;19.90;;;;;;;;;;6099579;23;20056;-86
2024/01/10 05:06:46;;;;;;;29.93;19.23;;;;;;;;;;6144229;23;20529;-85
2024/01/10 05:09:15;;;;;;;31.13;18.77;;;;;;;;;;6148062;23;20059;-85
2024/01/10 05:11:42;;;;;;;;;;;;;;;;;;6119473;23;20048;-86
2024/01/10 05:14:09;;;;;;;28.37;17.50;;;;;;;;;;6147533;23;20249;-85
2024/01/10 05:16:36;;;;;;;30.27;18.07;;;;;;;;;;6144267;23;20028;-86
2024/01/10 05:19:03;;;;;;;29.73;18.87;;;;;;;;;;6123247;23;20103;-85
2024/01/10 05:21:31;;;;;;;31.40;20.90;;;;;;;;;;6121427;23;20021;-86
2024/01/10 05:23:58;;;;;;;30.38;18.58;;;;;;;;;;6147925;23;20027;-86
2024/01/10 05:26:25;;;;;;;30.03;19.17;;;;;;;;;;6122304;23;20362;-86
2024/01/10 05:28:52;;;;;;;29.23;19.03;;;;;;;;;;6144986;23;20021;-86
2024/01/10 05:31:20;;;;;;;30.60;20.00;;;;;;;;;;6122652;23;20059;-85
2024/01/10 05:33:47;;;;;;;29.97;19.73;;;;;;;;;;6145103;23;20021;-86
2024/01/10 05:36:14;;;;;;;31.27;20.30;;;;;;;;;;6147158;23;20732;-86
2024/01/10 05:38:42;;;;;;;29.57;19.60;;;;;;;;;;6146948;23;20319;-85
2024/01/10 05:41:09;;;;;;;30.70;20.48;;;;;;;;;;6121956;23;20024;-86
2024/01/10 05:43:37;;;;;;;31.00;19.50;;;;;;;;;;6119789;23;20025;-86
2024/01/10 05:46:05;;;;;;;30.77;19.77;;;;;;;;;;6122649;23;20019;-85
2024/01/10 05:48:32;;;;;;;33.17;20.83;;;;;;;;;;6120127;23;20044;-86
2024/01/10 05:50:59;;;;;;;29.87;19.60;;;;;;;;;;6145795;23;20490;-86
2024/01/10 05:53:31;;;;;;;30.53;19.03;;;;;;;;;;6123197;23;20512;-86
2024/01/10 05:56:00;;;;;;;28.80;19.77;;;;;;;;;;6147228;23;20049;-85
2024/01/10 05:58:27;;;;;;;29.23;20.33;;;;;;;;;;6122295;23;20009;-85
2024/01/10 06:00:55;;;;;;;28.13;19.37;;;;;;;;;;6120678;23;20433;-85
2024/01/10 06:03:22;;;;;;;29.03;18.87;;;;;;;;;;6122604;23;20036;-85
2024/01/10 06:05:49;;;;;;;32.83;19.57;;;;;;;;;;6119211;23;20090;-86
2024/01/10 06:08:17;;;;;;;30.57;20.00;;;;;;;;;;6146872;23;20026;-86
2024/01/10 06:10:45;;;;;;;34.00;19.80;;;;;;;;;;6118813;23;20028;-85
2024/01/10 06:13:12;;;;;;;32.00;19.80;;;;;;;;;;6122820;23;20113;-85
2024/01/10 06:15:39;;;;;;;28.03;19.10;;;;;;;;;;6144611;23;20025;-85
2024/01/10 06:18:07;;;;;;;27.47;18.63;;;;;;;;;;6122962;23;20342;-86
2024/01/10 06:20:37;;;;;;;28.73;19.23;;;;;;;;;;6144136;23;20023;-86
2024/01/10 06:23:05;;;;;;;29.90;18.50;;;;;;;;;;6145479;23;20076;-86
2024/01/10 06:25:32;;;;;;;28.13;18.47;;;;;;;;;;6118130;23;20057;-86
2024/01/10 06:27:58;;;;;;;28.27;19.13;;;;;;;;;;6145095;23;20040;-86
2024/01/10 06:30:26;;;;;;;30.33;20.63;;;;;;;;;;6119400;23;20021;-85
2024/01/10 06:32:53;;;;;;;29.57;18.50;;;;;;;;;;6122012;23;20397;-86
2024/01/10 06:35:19;;;;;;;29.03;19.03;;;;;;;;;;6123716;23;20341;-86
2024/01/10 06:37:47;;;;;;;27.33;18.13;;;;;;;;;;6122653;23;20036;-86
2024/01/10 06:40:14;;;;;;;28.80;18.60;;;;;;;;;;6174529;23;20346;-86
2024/01/10 06:42:41;;;;;;;31.13;19.97;;;;;;;;;;6146619;23;20048;-86
2024/01/10 06:45:09;;;;;;;27.83;18.83;;;;;;;;;;6148495;23;20411;-86
2024/01/10 06:47:37;;;;;;;28.57;18.90;;;;;;;;;;6146553;23;20099;-86
2024/01/10 06:50:05;;;;;;;27.83;19.65;;;;;;;;;;6124253;23;20043;-86
2024/01/10 06:52:32;;;;;;;27.67;18.90;;;;;;;;;;6120942;23;20386;-86
2024/01/10 06:55:00;;;;;;;28.43;18.43;;;;;;;;;;6124177;23;20056;-86
2024/01/10 06:57:27;;;;;;;25.93;18.43;;;;;;;;;;6148970;23;20023;-86
2024/01/10 06:59:54;;;;;;;26.73;18.07;;;;;;;;;;6146902;23;20023;-86
2024/01/10 07:02:23;;;;;;;28.60;18.60;;;;;;;;;;6174621;23;20048;-86
2024/01/10 07:04:50;;;;;;;26.87;17.93;;;;;;;;;;6120420;23;20097;-86
2024/01/10 07:07:18;;;;;;;29.55;19.88;;;;;;;;;;6123784;23;20017;-87
2024/01/10 07:09:46;;;;;;;27.13;18.60;;;;;;;;;;6169579;23;20028;-88
2024/01/10 07:12:13;;;;;;;28.00;18.67;;;;;;;;;;6147370;23;20390;-87
2024/01/10 07:14:41;;;;;;;25.67;18.23;;;;;;;;;;6148190;23;20048;-88
2024/01/10 07:17:09;;;;;;;;;;;;;;;;;;6121813;23;20021;-87
2024/01/10 07:19:35;;;;;;;26.05;16.25;;;;;;;;;;6170147;23;20321;-87
2024/01/10 07:22:02;;;;;;;26.13;17.17;;;;;;;;;;6119422;23;20063;-87
2024/01/10 07:24:30;;;;;;;27.90;18.17;;;;;;;;;;6120700;23;20025;-87
2024/01/10 07:26:59;;;;;;;;;;;;;;;;;;6122663;23;20330;-87
2024/01/10 07:29:26;;;;;;;25.85;16.73;;;;;;;;;;6147566;23;20007;-86
2024/01/10 07:31:54;;;;;;;27.43;18.97;;;;;;;;;;6145883;23;20044;-87
2024/01/10 07:34:21;;;;;;;28.75;18.15;;;;;;;;;;6126559;23;20019;-87
2024/01/10 07:36:48;;;;;;;26.80;18.13;;;;;;;;;;6147223;23;20017;-87
2024/01/10 07:39:18;;;;;;;27.87;18.70;;;;;;;;;;6151807;23;20398;-87
2024/01/10 07:41:45;;;;;;;31.07;20.13;;;;;;;;;;6147356;23;20024;-87
2024/01/10 07:44:12;;;;;;;27.80;18.43;;;;;;;;;;6149897;23;20021;-87
2024/01/10 07:46:40;;;;;;;26.73;17.93;;;;;;;;;;6121280;23;20021;-87
2024/01/10 07:49:08;;;;;;;29.27;20.57;;;;;;;;;;6150261;23;20317;-87
2024/01/10 07:51:36;;;;;;;26.60;19.43;;;;;;;;;;6147878;23;20021;-87
2024/01/10 07:54:03;;;;;;;31.70;20.30;;;;;;;;;;6125254;23;20100;-87
2024/01/10 07:56:31;;;;;;;28.27;19.73;;;;;;;;;;6122457;23;20442;-87
2024/01/10 07:59:01;;;;;;;29.77;19.07;;;;;;;;;;6149068;23;20323;-86
2024/01/10 08:01:30;;;;;;;28.57;18.97;;;;;;;;;;6126779;23;20028;-87
2024/01/10 08:07:38;;;;;;;28.23;18.27;;;;;;;;;;6092878;23;20565;-87
2024/01/10 08:17:52;;;;;;;28.77;18.30;;;;;;;;;;6035086;23;20018;-87
2024/01/10 08:31:12;;;;;;;31.30;18.00;;;;;;;;;;5905710;24;20025;-87
2024/01/10 08:33:39;;;;;;;28.70;18.40;;;;;;;;;;5916001;24;20036;-88
2024/01/10 08:36:09;;;;;;;28.10;17.80;;;;;;;;;;5920145;24;20020;-88
2024/01/10 08:38:37;;;;;;;29.67;18.07;;;;;;;;;;5918890;24;20025;-88
2024/01/10 08:41:04;;;;;;;29.05;18.00;;;;;;;;;;5932416;24;20019;-88
2024/01/10 08:43:31;;;;;;;30.00;18.63;;;;;;;;;;5946134;24;20031;-88
2024/01/10 08:45:58;;;;;;;30.00;18.13;;;;;;;;;;5948750;23;20031;-88
2024/01/10 08:48:25;;;;;;;26.50;17.53;;;;;;;;;;6012957;23;20022;-88
2024/01/10 08:50:51;;;;;;;28.77;17.77;;;;;;;;;;6009616;23;20026;-88
2024/01/10 08:53:18;;;;;;;29.57;17.47;;;;;;;;;;6036162;23;20109;-88
2024/01/10 08:55:47;;;;;;;29.07;17.90;;;;;;;;;;6010441;23;20022;-88
2024/01/10 08:58:14;;;;;;;29.25;17.42;;;;;;;;;;6013237;23;20018;-88
2024/01/10 09:00:41;;;;;;;31.10;17.43;;;;;;;;;;6010521;23;20026;-88
2024/01/10 09:03:08;;;;;;;29.67;17.13;;;;;;;;;;6037085;23;20029;-87
2024/01/10 09:05:34;;;;;;;30.50;17.07;;;;;;;;;;6129811;23;20013;-87
2024/01/10 09:08:01;;;;;;;27.53;17.20;;;;;;;;;;6096488;23;20023;-88
2024/01/10 09:10:30;;;;;;;28.90;16.13;;;;;;;;;;6071591;23;20025;-88
2024/01/10 09:12:58;;;;;;;30.90;18.20;;;;;;;;;;6072708;23;20022;-88
2024/01/10 09:15:26;;;;;;;30.23;17.60;;;;;;;;;;6072604;23;20013;-87
2024/01/10 09:17:53;;;;;;;29.63;16.67;;;;;;;;;;6070577;23;20014;-88
2024/01/10 09:20:21;;;;;;;28.63;16.93;;;;;;;;;;6119681;23;20473;-88
2024/01/10 09:22:48;;;;;;;27.15;16.13;;;;;;;;;;6094326;23;20097;-88
2024/01/10 09:25:17;;;;;;;29.13;15.93;;;;;;;;;;6075276;23;20116;-88
2024/01/10 09:27:44;;;;;;;;;;;;;;;;;;6148398;23;20029;-88
2024/01/10 09:30:12;;;;;;;27.80;15.27;;;;;;;;;;6125908;23;19919;-88
2024/01/10 09:32:41;;;;;;;30.70;16.57;;;;;;;;;;6146725;23;20027;-88
2024/01/10 09:35:08;;;;;;;32.10;16.73;;;;;;;;;;6149984;23;20009;-88
2024/01/10 09:37:36;;;;;;;28.88;16.38;;;;;;;;;;6147451;23;20021;-89
2024/01/10 09:40:04;;;;;;;32.80;16.80;;;;;;;;;;6149175;23;20013;-88
2024/01/10 09:42:33;;;;;;;28.50;16.17;;;;;;;;;;6146870;23;20072;-88
2024/01/10 09:45:00;;;;;;;29.60;16.60;;;;;;;;;;6148343;23;20040;-88
2024/01/10 09:47:27;;;;;;;26.87;14.97;;;;;;;;;;6149776;23;20061;-88
2024/01/10 09:49:55;;;;;;;28.13;13.83;;;;;;;;;;6149032;23;20017;-88
2024/01/10 09:52:30;;;;;;;26.70;14.00;;;;;;;;;;6148170;23;20107;-89
2024/01/10 09:54:58;;;;;;;21.27;11.07;;;;;;;;;;6149270;23;20068;-88
2024/01/10 09:57:25;;;;;;;20.97;11.33;;;;;;;;;;6149354;23;20342;-89
2024/01/10 09:59:55;;;;;;;21.45;10.70;;;;;;;;;;6150160;23;20020;-88
2024/01/10 10:02:23;;;;;;;22.38;10.88;;;;;;;;;;6124433;23;20461;-88
2024/01/10 10:05:18;;;;;;;18.10;9.80;;;;;;;;;;6146580;23;20120;-88
2024/01/10 10:07:48;;;;;;;24.65;11.07;;;;;;;;;;6104308;23;20012;-88
2024/01/10 10:10:15;;;;;;;17.48;10.38;;;;;;;;;;6148733;23;20020;-88
2024/01/10 10:12:48;;;;;;;19.65;9.50;;;;;;;;;;6147229;23;20013;-88
2024/01/10 10:15:18;;;;;;;17.77;10.00;;;;;;;;;;6101471;23;20017;-87
2024/01/10 10:17:47;;;;;;;22.02;11.05;;;;;;;;;;6123385;23;20425;-88
2024/01/10 10:20:32;;;;;;;19.90;10.70;;;;;;;;;;6149303;23;20025;-87
2024/01/10 10:23:12;;;;;;;17.27;9.68;;;;;;;;;;6149417;23;20075;-87
2024/01/10 10:25:44;;;;;;;18.10;10.02;;;;;;;;;;6092929;23;20060;-88
2024/01/10 10:28:11;;;;;;;16.25;9.68;;;;;;;;;;6122757;23;20173;-87
2024/01/10 10:30:38;;;;;;;20.17;10.43;;;;;;;;;;6122009;23;20021;-88
2024/01/10 10:33:08;;;;;;;18.50;10.38;;;;;;;;;;6125717;23;20354;-88
2024/01/10 10:35:36;;;;;;;17.80;10.07;;;;;;;;;;6120775;23;20013;-88
2024/01/10 10:38:04;;;;;;;19.27;9.75;;;;;;;;;;6124710;23;20342;-87
2024/01/10 10:40:31;;;;;;;19.88;10.05;;;;;;;;;;6145143;23;20067;-88
2024/01/10 10:42:58;;;;;;;17.40;9.10;;;;;;;;;;6123672;23;20091;-87
2024/01/10 10:45:26;;;;;;;16.92;8.98;;;;;;;;;;6123983;23;20446;-88
2024/01/10 10:48:02;;;;;;;17.23;8.82;;;;;;;;;;6119934;23;20023;-89
2024/01/10 10:59:07;;;;;;;15.73;9.00;;;;;;;;;;6204502;22;20020;-84
2024/01/10 11:27:50;;;;;;;;;;;;;;;;;;;;;
2024/01/10 11:33:54;;;;;;;16.08;8.20;;;;;;;;;;6158302;23;20024;-84
2024/01/10 11:36:55;;;;;;;13.85;7.10;;;;;;;;;;6184577;23;20019;-84
2024/01/10 11:43:21;;;;;;;19.85;7.72;;;;;;;;;;6207428;23;20016;-84
2024/01/10 11:46:44;;;;;;;16.52;7.43;;;;;;;;;;6053492;23;20480;-84
2024/01/10 11:49:33;;;;;;;13.43;7.65;;;;;;;;;;6059708;23;20029;-84
2024/01/10 11:56:14;;;;;;;12.32;6.88;;;;;;;;;;5977319;24;20043;-84
2024/01/10 12:02:47;;;;;;;;;;;;;;;;;;;;;
2024/01/10 12:09:09;;;;;;;;;;;;;;;;;;;;;
2024/01/10 12:12:31;;;;;;;12.75;7.05;;;;;;;;;;6036131;23;20078;-84
2024/01/10 12:15:39;;;;;;;12.18;6.60;;;;;;;;;;5942737;24;20021;-83
2024/01/10 12:18:08;;;;;;;13.82;7.13;;;;;;;;;;5882564;24;20530;-83
2024/01/10 12:20:56;;;;;;;13.88;7.70;;;;;;;;;;5968394;23;20099;-83
2024/01/10 12:23:54;;;;;;;12.27;7.03;;;;;;;;;;6023821;23;20074;-84
2024/01/10 12:26:33;;;;;;;10.60;6.57;;;;;;;;;;6013970;23;20095;-84
2024/01/10 12:29:06;;;;;;;16.52;7.05;;;;;;;;;;6006544;23;20026;-85
2024/01/10 12:31:50;;;;;;;12.70;7.03;;;;;;;;;;6054371;23;20011;-84
2024/01/10 12:34:34;;;;;;;15.27;7.53;;;;;;;;;;6147699;23;20075;-84
2024/01/10 12:40:58;;;;;;;13.63;6.85;;;;;;;;;;6081791;23;20109;-84
2024/01/10 12:44:07;;;;;;;;;;;;;;;;;;;;;
2024/01/10 12:47:53;;;;;;;;;;;;;;;;;;;;;
2024/01/10 12:50:52;;;;;;;13.35;6.95;;;;;;;;;;6115081;23;20569;-83
2024/01/10 12:53:46;;;;;;;;;;;;;;;;;;;;;
2024/01/10 12:56:55;;;;;;;13.55;6.47;;;;;;;;;;6118421;23;20472;-84
2024/01/10 12:59:33;;;;;;;13.52;6.60;;;;;;;;;;6019208;23;20059;-83
2024/01/10 13:02:13;;;;;;;13.48;6.53;;;;;;;;;;6056924;23;20781;-83
2024/01/10 13:04:47;;;;;;;13.05;6.07;;;;;;;;;;6068102;23;20028;-83
2024/01/10 13:07:31;;;;;;;13.82;6.18;;;;;;;;;;6112904;23;20013;-83
2024/01/10 13:10:45;;;;;;;;;;;;;;;;;;;;;
2024/01/10 13:13:41;;;;;;;13.70;6.32;;;;;;;;;;6171840;23;20042;-83
2024/01/10 13:16:13;;;;;;;12.27;5.85;;;;;;;;;;6169896;23;20017;-83
2024/01/10 13:18:58;;;;;;;;;;;;;;;;;;;;;
2024/01/10 13:21:38;;;;;;;12.45;6.40;;;;;;;;;;6172891;23;20398;-84
2024/01/10 13:24:12;;;;;;;12.95;5.93;;;;;;;;;;6171296;23;20017;-84
2024/01/10 13:27:10;;;;;;;12.90;6.03;;;;;;;;;;6143028;23;20322;-84
2024/01/10 13:30:41;;;;;;;12.30;5.65;;;;;;;;;;6176187;23;20549;-84
2024/01/10 13:33:14;;;;;;;10.60;5.75;;;;;;;;;;6155363;23;20801;-83
2024/01/10 13:36:15;;;;;;;13.80;6.50;;;;;;;;;;6167605;23;20529;-84
2024/01/10 13:39:15;;;;;;;;;;;;;;;;;;;;;
2024/01/10 13:42:12;;;;;;;10.80;5.95;;;;;;;;;;6181192;23;20016;-83
2024/01/10 13:44:51;;;;;;;11.25;6.13;;;;;;;;;;6168282;23;20414;-84
2024/01/10 13:47:36;;;;;;;11.65;5.70;;;;;;;;;;6170494;23;20071;-84
2024/01/10 13:50:28;;;;;;;13.75;6.88;;;;;;;;;;6182359;23;20071;-83
2024/01/10 13:53:20;;;;;;;;;;;;;;;;;;;;;
2024/01/10 13:56:34;;;;;;;10.65;5.50;;;;;;;;;;6168333;23;20021;-84
2024/01/10 13:59:05;;;;;;;;;;;;;;;;;;;;;
2024/01/10 14:02:25;;;;;;;;;;;;;;;;;;;;;
2024/01/10 14:05:42;;;;;;;11.77;6.25;;;;;;;;;;6061258;23;20135;-83
2024/01/10 14:08:23;;;;;;;10.68;5.80;;;;;;;;;;6075134;23;20013;-84
2024/01/10 14:11:37;;;;;;;13.73;6.82;;;;;;;;;;6171141;23;20545;-84
2024/01/10 14:14:07;;;;;;;15.27;6.82;;;;;;;;;;6169749;23;20104;-84
2024/01/10 14:16:44;;;;;;;10.88;6.13;;;;;;;;;;6165585;23;20021;-84
2024/01/10 14:19:29;;;;;;;9.93;5.65;;;;;;;;;;6171299;23;20039;-84
2024/01/10 14:22:29;;;;;;;11.52;6.35;;;;;;;;;;6171035;23;20040;-84
2024/01/10 14:25:23;;;;;;;13.82;6.75;;;;;;;;;;6171607;23;20052;-84
2024/01/10 14:28:03;;;;;;;13.88;6.35;;;;;;;;;;6081098;23;20054;-84
2024/01/10 14:31:12;;;;;;;12.73;6.30;;;;;;;;;;6093582;23;20025;-84
2024/01/10 14:37:36;;;;;;;13.20;6.63;;;;;;;;;;6104902;23;20450;-83
2024/01/10 14:40:25;;;;;;;13.95;6.78;;;;;;;;;;6117747;23;20382;-84
2024/01/10 14:43:26;;;;;;;;;;;;;;;;;;;;;
2024/01/10 14:46:46;;;;;;;16.00;7.60;;;;;;;;;;6151971;23;20116;-84
2024/01/10 14:49:36;;;;;;;;;;;;;;;;;;;;;
2024/01/10 14:52:48;;;;;;;;;;;;;;;;;;;;;
2024/01/10 14:56:02;;;;;;;18.35;8.38;;;;;;;;;;6143381;23;20018;-84
2024/01/10 14:58:33;;;;;;;13.82;7.93;;;;;;;;;;6123490;23;20028;-83
2024/01/10 15:01:41;;;;;;;;;;;;;;;;;;;;;
2024/01/10 15:04:35;;;;;;;17.48;8.15;;;;;;;;;;6153802;23;20029;-84
2024/01/10 15:07:35;;;;;;;14.95;7.80;;;;;;;;;;6024146;23;20079;-84
2024/01/10 15:10:30;;;;;;;;;;;;;;;;;;;;;
2024/01/10 15:13:26;;;;;;;18.67;9.25;;;;;;;;;;6093516;23;20033;-83
2024/01/10 15:16:34;;;;;;;15.63;8.82;;;;;;;;;;6039198;23;20073;-83
2024/01/10 15:19:13;;;;;;;15.18;8.02;;;;;;;;;;6036533;23;20026;-85
2024/01/10 15:22:10;;;;;;;16.60;8.18;;;;;;;;;;6079383;23;20086;-84
2024/01/10 15:25:01;;;;;;;20.33;8.43;;;;;;;;;;6081385;23;20018;-83
2024/01/10 15:37:16;;;;;;;15.27;7.43;;;;;;;;;;6118938;23;20028;-84
2024/01/10 15:40:13;;;;;;;17.02;8.45;;;;;;;;;;6144942;23;20103;-84
2024/01/10 15:43:36;;;;;;;17.13;8.18;;;;;;;;;;6124522;23;20019;-83
2024/01/10 15:46:34;;;;;;;14.65;6.65;;;;;;;;;;6139992;23;20776;-83
2024/01/10 15:57:22;;;;;;;259.23;92.97;;;;;;;;;;6197188;23;20565;-81
2024/01/10 15:59:59;;;;;;;87.80;42.25;;;;;;;;;;6174829;23;20024;-83
2024/01/10 16:02:35;;;;;;;31.02;17.67;;;;;;;;;;6150905;23;20442;-84
2024/01/10 16:05:04;;;;;;;134.73;76.72;;;;;;;;;;6176102;23;20087;-83
2024/01/10 16:07:52;;;;;;;;;;;;;;;;;;;;;
2024/01/10 16:10:31;;;;;;;132.57;55.95;;;;;;;;;;6175912;23;20035;-83
2024/01/10 16:13:02;;;;;;;78.15;33.08;;;;;;;;;;6175816;23;20055;-84
2024/01/10 16:15:53;;;;;;;;;;;;;;;;;;;;;
2024/01/10 16:18:40;;;;;;;20.87;10.47;;;;;;;;;;6180565;23;20013;-83
2024/01/10 16:23:59;;;;;;;21.83;11.33;;;;;;;;;;6164911;23;20036;-83
2024/01/10 16:26:28;;;;;;;16.13;8.50;;;;;;;;;;6149933;23;20051;-82
2024/01/10 16:28:57;;;;;;;23.67;9.87;;;;;;;;;;6177208;23;20344;-82
2024/01/10 16:31:32;;;;;;;16.30;9.20;;;;;;;;;;6177508;23;20082;-83
2024/01/10 16:34:18;;;;;;;13.75;8.80;;;;;;;;;;6153258;23;20013;-82
2024/01/10 16:36:53;;;;;;;17.38;8.10;;;;;;;;;;6172019;23;20028;-83
2024/01/10 16:39:47;;;;;;;22.03;9.67;;;;;;;;;;6177473;23;20021;-83
2024/01/10 16:42:19;;;;;;;18.83;9.27;;;;;;;;;;6176692;23;20078;-83
2024/01/10 16:45:36;;;;;;;16.23;8.87;;;;;;;;;;6192916;23;20067;-83
2024/01/10 16:48:28;;;;;;;;;;;;;;;;;;;;;
2024/01/10 16:54:09;;;;;;;32.67;14.47;;;;;;;;;;6163203;23;20098;-84
2024/01/10 16:57:04;;;;;;;60.57;24.87;;;;;;;;;;6147056;23;20035;-83
2024/01/10 17:14:18;;;;;;;;;;;;;;;;;;;;;
2024/01/10 17:17:44;;;;;;;;;;;;;;;;;;;;;
2024/01/10 17:24:50;;;;;;;;;;;;;;;;;;;;;
2024/01/10 17:48:13;;;;;;;16.43;9.60;;;;;;;;;;6229327;22;20467;-86
2024/01/10 17:51:02;;;;;;;19.50;10.23;;;;;;;;;;6192908;22;20024;-85
2024/01/10 17:54:09;;;;;;;;;;;;;;;;;;;;;
2024/01/10 18:00:33;;;;;;;;;;;;;;;;;;;;;